sensor_id;sensor_type;location;lat;lon;timestamp;P1;durP1;ratioP1;P2;durP2;ratioP2
2320;SDS011;15376;48.540;9.268;2023-04-03T00:00:28;5.00;;;4.60;;
2320;SDS011;15376;48.540;9.268;2023-04-03T00:02:54;5.30;;;4.90;;
2320;SDS011;15376;48.540;9.268;2023-04-03T00:05:20;5.00;;;4.63;;
2320;SDS011;15376;48.540;9.268;2023-04-03T00:07:46;9.90;;;4.60;;
2320;SDS011;15376;48.540;9.268;2023-04-03T00:10:11;5.23;;;4.73;;
2320;SDS011;15376;48.540;9.268;2023-04-03T00:12:37;5.20;;;4.63;;
2320;SDS011;15376;48.540;9.268;2023-04-03T00:15:02;4.83;;;4.43;;
2320;SDS011;15376;48.540;9.268;2023-04-03T00:17:28;5.13;;;4.60;;
2320;SDS011;15376;48.540;9.268;2023-04-03T00:19:54;5.80;;;5.30;;
2320;SDS011;15376;48.540;9.268;2023-04-03T00:22:19;5.10;;;4.70;;
2320;SDS011;15376;48.540;9.268;2023-04-03T00:24:44;5.33;;;4.83;;
2320;SDS011;15376;48.540;9.268;2023-04-03T00:27:10;7.10;;;4.90;;
2320;SDS011;15376;48.540;9.268;2023-04-03T00:29:36;5.03;;;4.67;;
2320;SDS011;15376;48.540;9.268;2023-04-03T00:32:01;5.53;;;5.03;;
2320;SDS011;15376;48.540;9.268;2023-04-03T00:34:26;5.47;;;4.97;;
2320;SDS011;15376;48.540;9.268;2023-04-03T00:36:52;6.00;;;5.20;;
2320;SDS011;15376;48.540;9.268;2023-04-03T00:39:17;5.60;;;5.10;;
2320;SDS011;15376;48.540;9.268;2023-04-03T00:41:42;5.53;;;5.07;;
2320;SDS011;15376;48.540;9.268;2023-04-03T00:46:46;5.60;;;5.10;;
2320;SDS011;15376;48.540;9.268;2023-04-03T00:49:12;4.97;;;4.57;;
2320;SDS011;15376;48.540;9.268;2023-04-03T00:51:37;5.57;;;5.07;;
2320;SDS011;15376;48.540;9.268;2023-04-03T00:54:03;5.93;;;5.43;;
2320;SDS011;15376;48.540;9.268;2023-04-03T00:56:30;6.00;;;5.50;;
2320;SDS011;15376;48.540;9.268;2023-04-03T00:59:01;5.20;;;4.80;;
2320;SDS011;15376;48.540;9.268;2023-04-03T01:01:33;5.20;;;4.57;;
2320;SDS011;15376;48.540;9.268;2023-04-03T01:04:00;5.70;;;5.20;;
2320;SDS011;15376;48.540;9.268;2023-04-03T01:06:28;5.03;;;4.50;;
2320;SDS011;15376;48.540;9.268;2023-04-03T01:08:59;6.30;;;5.00;;
2320;SDS011;15376;48.540;9.268;2023-04-03T01:11:25;5.67;;;4.73;;
2320;SDS011;15376;48.540;9.268;2023-04-03T01:13:51;5.20;;;4.73;;
2320;SDS011;15376;48.540;9.268;2023-04-03T01:16:16;5.17;;;4.70;;
2320;SDS011;15376;48.540;9.268;2023-04-03T01:18:42;7.33;;;5.03;;
2320;SDS011;15376;48.540;9.268;2023-04-03T01:26:42;5.80;;;5.30;;
2320;SDS011;15376;48.540;9.268;2023-04-03T01:29:08;6.00;;;5.23;;
2320;SDS011;15376;48.540;9.268;2023-04-03T01:34:02;5.70;;;5.20;;
2320;SDS011;15376;48.540;9.268;2023-04-03T01:36:29;6.57;;;5.60;;
2320;SDS011;15376;48.540;9.268;2023-04-03T01:38:56;5.97;;;5.37;;
2320;SDS011;15376;48.540;9.268;2023-04-03T01:41:24;5.43;;;4.87;;
2320;SDS011;15376;48.540;9.268;2023-04-03T01:43:50;5.80;;;5.30;;
2320;SDS011;15376;48.540;9.268;2023-04-03T01:46:16;5.30;;;4.90;;
2320;SDS011;15376;48.540;9.268;2023-04-03T01:48:42;5.23;;;4.63;;
2320;SDS011;15376;48.540;9.268;2023-04-03T01:51:08;5.33;;;4.93;;
2320;SDS011;15376;48.540;9.268;2023-04-03T01:53:34;5.87;;;5.27;;
2320;SDS011;15376;48.540;9.268;2023-04-03T01:55:59;6.17;;;5.57;;
2320;SDS011;15376;48.540;9.268;2023-04-03T01:58:25;6.00;;;5.50;;
2320;SDS011;15376;48.540;9.268;2023-04-03T02:00:50;5.50;;;5.00;;
2320;SDS011;15376;48.540;9.268;2023-04-03T02:03:16;6.47;;;5.87;;
2320;SDS011;15376;48.540;9.268;2023-04-03T02:05:41;4.83;;;4.43;;
2320;SDS011;15376;48.540;9.268;2023-04-03T02:08:07;5.67;;;5.17;;
2320;SDS011;15376;48.540;9.268;2023-04-03T02:10:32;6.80;;;6.20;;
2320;SDS011;15376;48.540;9.268;2023-04-03T02:12:58;6.47;;;5.30;;
2320;SDS011;15376;48.540;9.268;2023-04-03T02:15:23;5.50;;;5.10;;
2320;SDS011;15376;48.540;9.268;2023-04-03T02:17:48;6.23;;;5.07;;
2320;SDS011;15376;48.540;9.268;2023-04-03T02:20:14;5.70;;;5.20;;
2320;SDS011;15376;48.540;9.268;2023-04-03T02:22:39;7.50;;;5.03;;
2320;SDS011;15376;48.540;9.268;2023-04-03T02:25:05;5.73;;;5.23;;
2320;SDS011;15376;48.540;9.268;2023-04-03T02:27:30;6.83;;;5.87;;
2320;SDS011;15376;48.540;9.268;2023-04-03T02:29:56;5.43;;;4.97;;
2320;SDS011;15376;48.540;9.268;2023-04-03T02:32:22;6.13;;;5.60;;
2320;SDS011;15376;48.540;9.268;2023-04-03T02:34:47;5.30;;;4.80;;
2320;SDS011;15376;48.540;9.268;2023-04-03T02:37:12;5.80;;;5.37;;
2320;SDS011;15376;48.540;9.268;2023-04-03T02:39:38;5.00;;;4.60;;
2320;SDS011;15376;48.540;9.268;2023-04-03T02:42:03;5.13;;;4.60;;
2320;SDS011;15376;48.540;9.268;2023-04-03T02:44:29;5.20;;;4.70;;
2320;SDS011;15376;48.540;9.268;2023-04-03T02:46:54;5.23;;;4.73;;
2320;SDS011;15376;48.540;9.268;2023-04-03T02:49:19;6.30;;;5.73;;
2320;SDS011;15376;48.540;9.268;2023-04-03T02:51:45;5.70;;;5.20;;
2320;SDS011;15376;48.540;9.268;2023-04-03T02:54:10;6.63;;;5.00;;
2320;SDS011;15376;48.540;9.268;2023-04-03T02:56:36;5.83;;;5.33;;
2320;SDS011;15376;48.540;9.268;2023-04-03T02:59:01;8.80;;;5.27;;
2320;SDS011;15376;48.540;9.268;2023-04-03T03:01:27;6.23;;;5.63;;
2320;SDS011;15376;48.540;9.268;2023-04-03T03:03:56;6.63;;;5.30;;
2320;SDS011;15376;48.540;9.268;2023-04-03T03:06:22;7.37;;;6.67;;
2320;SDS011;15376;48.540;9.268;2023-04-03T03:08:47;11.20;;;9.60;;
2320;SDS011;15376;48.540;9.268;2023-04-03T03:11:13;5.90;;;5.40;;
2320;SDS011;15376;48.540;9.268;2023-04-03T03:13:38;7.00;;;6.27;;
2320;SDS011;15376;48.540;9.268;2023-04-03T03:16:03;10.70;;;9.70;;
2320;SDS011;15376;48.540;9.268;2023-04-03T03:18:30;7.20;;;6.60;;
2320;SDS011;15376;48.540;9.268;2023-04-03T03:20:56;6.77;;;6.17;;
2320;SDS011;15376;48.540;9.268;2023-04-03T03:23:24;6.43;;;5.63;;
2320;SDS011;15376;48.540;9.268;2023-04-03T03:26:02;6.17;;;5.57;;
2320;SDS011;15376;48.540;9.268;2023-04-03T03:28:29;5.57;;;5.07;;
2320;SDS011;15376;48.540;9.268;2023-04-03T03:30:55;5.90;;;5.40;;
2320;SDS011;15376;48.540;9.268;2023-04-03T03:33:21;10.20;;;6.00;;
2320;SDS011;15376;48.540;9.268;2023-04-03T03:35:46;5.53;;;5.03;;
2320;SDS011;15376;48.540;9.268;2023-04-03T03:38:12;5.27;;;4.77;;
2320;SDS011;15376;48.540;9.268;2023-04-03T03:40:37;5.50;;;5.00;;
2320;SDS011;15376;48.540;9.268;2023-04-03T03:43:03;5.70;;;5.17;;
2320;SDS011;15376;48.540;9.268;2023-04-03T03:45:28;9.50;;;5.07;;
2320;SDS011;15376;48.540;9.268;2023-04-03T03:47:53;5.10;;;4.70;;
2320;SDS011;15376;48.540;9.268;2023-04-03T03:50:19;5.87;;;5.30;;
2320;SDS011;15376;48.540;9.268;2023-04-03T03:52:44;6.13;;;5.53;;
2320;SDS011;15376;48.540;9.268;2023-04-03T03:55:10;7.20;;;5.97;;
2320;SDS011;15376;48.540;9.268;2023-04-03T03:57:35;5.73;;;5.23;;
2320;SDS011;15376;48.540;9.268;2023-04-03T04:00:01;6.20;;;5.60;;
2320;SDS011;15376;48.540;9.268;2023-04-03T04:02:28;5.40;;;4.90;;
2320;SDS011;15376;48.540;9.268;2023-04-03T04:04:53;6.27;;;5.57;;
2320;SDS011;15376;48.540;9.268;2023-04-03T04:07:19;5.70;;;5.20;;
2320;SDS011;15376;48.540;9.268;2023-04-03T04:09:44;5.20;;;4.80;;
2320;SDS011;15376;48.540;9.268;2023-04-03T04:12:09;6.40;;;5.43;;
2320;SDS011;15376;48.540;9.268;2023-04-03T04:14:35;5.67;;;5.17;;
2320;SDS011;15376;48.540;9.268;2023-04-03T04:17:00;5.13;;;4.73;;
2320;SDS011;15376;48.540;9.268;2023-04-03T04:19:27;5.30;;;4.90;;
2320;SDS011;15376;48.540;9.268;2023-04-03T04:21:53;5.50;;;4.93;;
2320;SDS011;15376;48.540;9.268;2023-04-03T04:24:18;5.37;;;4.87;;
2320;SDS011;15376;48.540;9.268;2023-04-03T04:26:43;5.40;;;4.90;;
2320;SDS011;15376;48.540;9.268;2023-04-03T04:29:09;5.93;;;5.13;;
2320;SDS011;15376;48.540;9.268;2023-04-03T04:31:35;5.77;;;5.20;;
2320;SDS011;15376;48.540;9.268;2023-04-03T04:34:00;5.03;;;4.60;;
2320;SDS011;15376;48.540;9.268;2023-04-03T04:36:26;4.20;;;3.90;;
2320;SDS011;15376;48.540;9.268;2023-04-03T04:38:51;4.50;;;4.10;;
2320;SDS011;15376;48.540;9.268;2023-04-03T04:41:18;5.40;;;4.90;;
2320;SDS011;15376;48.540;9.268;2023-04-03T04:43:48;5.40;;;4.90;;
2320;SDS011;15376;48.540;9.268;2023-04-03T04:46:14;5.13;;;4.73;;
2320;SDS011;15376;48.540;9.268;2023-04-03T04:48:40;4.93;;;4.40;;
2320;SDS011;15376;48.540;9.268;2023-04-03T04:51:06;5.33;;;4.83;;
2320;SDS011;15376;48.540;9.268;2023-04-03T04:53:31;8.53;;;5.80;;
2320;SDS011;15376;48.540;9.268;2023-04-03T04:55:57;5.47;;;4.93;;
2320;SDS011;15376;48.540;9.268;2023-04-03T04:58:22;5.27;;;4.30;;
2320;SDS011;15376;48.540;9.268;2023-04-03T05:00:48;4.70;;;4.30;;
2320;SDS011;15376;48.540;9.268;2023-04-03T05:03:13;5.03;;;4.30;;
2320;SDS011;15376;48.540;9.268;2023-04-03T05:05:39;5.20;;;4.70;;
2320;SDS011;15376;48.540;9.268;2023-04-03T05:08:05;12.07;;;8.27;;
2320;SDS011;15376;48.540;9.268;2023-04-03T05:10:30;5.60;;;5.10;;
2320;SDS011;15376;48.540;9.268;2023-04-03T05:12:56;5.07;;;4.27;;
2320;SDS011;15376;48.540;9.268;2023-04-03T05:15:22;5.47;;;5.00;;
2320;SDS011;15376;48.540;9.268;2023-04-03T05:17:47;5.13;;;4.73;;
2320;SDS011;15376;48.540;9.268;2023-04-03T05:20:13;5.40;;;4.90;;
2320;SDS011;15376;48.540;9.268;2023-04-03T05:22:39;4.80;;;4.37;;
2320;SDS011;15376;48.540;9.268;2023-04-03T05:25:04;4.97;;;4.57;;
2320;SDS011;15376;48.540;9.268;2023-04-03T05:27:30;6.10;;;4.57;;
2320;SDS011;15376;48.540;9.268;2023-04-03T05:29:56;5.17;;;4.67;;
2320;SDS011;15376;48.540;9.268;2023-04-03T05:32:22;4.73;;;4.03;;
2320;SDS011;15376;48.540;9.268;2023-04-03T05:34:48;5.30;;;4.90;;
2320;SDS011;15376;48.540;9.268;2023-04-03T05:37:13;4.53;;;4.13;;
2320;SDS011;15376;48.540;9.268;2023-04-03T05:39:39;7.37;;;4.67;;
2320;SDS011;15376;48.540;9.268;2023-04-03T05:42:06;4.40;;;4.00;;
2320;SDS011;15376;48.540;9.268;2023-04-03T05:44:31;4.90;;;3.93;;
2320;SDS011;15376;48.540;9.268;2023-04-03T05:46:57;4.63;;;4.33;;
2320;SDS011;15376;48.540;9.268;2023-04-03T05:49:22;11.63;;;4.80;;
2320;SDS011;15376;48.540;9.268;2023-04-03T05:51:47;4.10;;;3.80;;
2320;SDS011;15376;48.540;9.268;2023-04-03T05:54:16;4.27;;;3.90;;
2320;SDS011;15376;48.540;9.268;2023-04-03T05:56:44;4.50;;;4.10;;
2320;SDS011;15376;48.540;9.268;2023-04-03T05:59:10;3.77;;;3.47;;
2320;SDS011;15376;48.540;9.268;2023-04-03T06:01:36;5.13;;;3.73;;
2320;SDS011;15376;48.540;9.268;2023-04-03T06:04:02;3.50;;;3.20;;
2320;SDS011;15376;48.540;9.268;2023-04-03T06:06:46;5.30;;;4.63;;
2320;SDS011;15376;48.540;9.268;2023-04-03T06:09:17;5.70;;;4.20;;
2320;SDS011;15376;48.540;9.268;2023-04-03T06:11:44;3.77;;;3.40;;
2320;SDS011;15376;48.540;9.268;2023-04-03T06:14:10;3.50;;;3.17;;
2320;SDS011;15376;48.540;9.268;2023-04-03T06:16:35;4.20;;;3.90;;
2320;SDS011;15376;48.540;9.268;2023-04-03T06:19:01;5.13;;;3.90;;
2320;SDS011;15376;48.540;9.268;2023-04-03T06:21:27;5.17;;;4.50;;
2320;SDS011;15376;48.540;9.268;2023-04-03T06:23:52;4.80;;;4.30;;
2320;SDS011;15376;48.540;9.268;2023-04-03T06:26:18;4.40;;;4.10;;
2320;SDS011;15376;48.540;9.268;2023-04-03T06:28:43;5.23;;;4.10;;
2320;SDS011;15376;48.540;9.268;2023-04-03T06:31:08;6.53;;;4.40;;
2320;SDS011;15376;48.540;9.268;2023-04-03T06:33:34;4.93;;;4.53;;
2320;SDS011;15376;48.540;9.268;2023-04-03T06:35:59;5.50;;;3.90;;
2320;SDS011;15376;48.540;9.268;2023-04-03T06:38:28;4.00;;;3.70;;
2320;SDS011;15376;48.540;9.268;2023-04-03T06:40:53;4.10;;;3.80;;
2320;SDS011;15376;48.540;9.268;2023-04-03T06:43:19;3.53;;;3.23;;
2320;SDS011;15376;48.540;9.268;2023-04-03T06:45:45;4.40;;;3.87;;
2320;SDS011;15376;48.540;9.268;2023-04-03T06:48:11;3.53;;;3.00;;
2320;SDS011;15376;48.540;9.268;2023-04-03T06:50:36;4.40;;;4.00;;
2320;SDS011;15376;48.540;9.268;2023-04-03T06:53:02;3.23;;;3.03;;
2320;SDS011;15376;48.540;9.268;2023-04-03T06:55:27;5.50;;;3.33;;
2320;SDS011;15376;48.540;9.268;2023-04-03T06:57:52;4.67;;;3.97;;
2320;SDS011;15376;48.540;9.268;2023-04-03T07:00:18;3.37;;;3.07;;
2320;SDS011;15376;48.540;9.268;2023-04-03T07:02:44;3.83;;;3.23;;
2320;SDS011;15376;48.540;9.268;2023-04-03T07:05:10;12.93;;;3.83;;
2320;SDS011;15376;48.540;9.268;2023-04-03T07:07:36;4.80;;;4.30;;
2320;SDS011;15376;48.540;9.268;2023-04-03T07:10:02;4.70;;;4.10;;
2320;SDS011;15376;48.540;9.268;2023-04-03T07:12:28;3.80;;;3.50;;
2320;SDS011;15376;48.540;9.268;2023-04-03T07:14:54;4.90;;;3.67;;
2320;SDS011;15376;48.540;9.268;2023-04-03T07:17:19;4.97;;;4.17;;
2320;SDS011;15376;48.540;9.268;2023-04-03T07:19:45;4.53;;;3.80;;
2320;SDS011;15376;48.540;9.268;2023-04-03T07:22:10;4.30;;;3.20;;
2320;SDS011;15376;48.540;9.268;2023-04-03T07:24:36;5.17;;;4.77;;
2320;SDS011;15376;48.540;9.268;2023-04-03T07:27:01;3.73;;;3.53;;
2320;SDS011;15376;48.540;9.268;2023-04-03T07:29:28;3.50;;;3.20;;
2320;SDS011;15376;48.540;9.268;2023-04-03T07:31:53;5.73;;;3.43;;
2320;SDS011;15376;48.540;9.268;2023-04-03T07:34:20;3.07;;;2.87;;
2320;SDS011;15376;48.540;9.268;2023-04-03T07:36:46;4.70;;;4.30;;
2320;SDS011;15376;48.540;9.268;2023-04-03T07:39:11;3.50;;;3.30;;
2320;SDS011;15376;48.540;9.268;2023-04-03T07:41:36;3.70;;;3.40;;
2320;SDS011;15376;48.540;9.268;2023-04-03T07:44:02;4.87;;;4.40;;
2320;SDS011;15376;48.540;9.268;2023-04-03T07:46:27;4.50;;;3.97;;
2320;SDS011;15376;48.540;9.268;2023-04-03T07:48:56;4.30;;;3.80;;
2320;SDS011;15376;48.540;9.268;2023-04-03T07:51:22;5.17;;;3.80;;
2320;SDS011;15376;48.540;9.268;2023-04-03T08:30:38;4.27;;;3.87;;
2320;SDS011;15376;48.540;9.268;2023-04-03T08:33:05;5.20;;;3.93;;
2320;SDS011;15376;48.540;9.268;2023-04-03T08:35:31;9.30;;;4.73;;
2320;SDS011;15376;48.540;9.268;2023-04-03T08:37:56;4.07;;;3.70;;
2320;SDS011;15376;48.540;9.268;2023-04-03T08:40:22;3.57;;;3.27;;
2320;SDS011;15376;48.540;9.268;2023-04-03T08:43:00;4.63;;;3.47;;
2320;SDS011;15376;48.540;9.268;2023-04-03T08:50:47;3.47;;;3.17;;
2320;SDS011;15376;48.540;9.268;2023-04-03T08:53:19;5.80;;;3.20;;
2320;SDS011;15376;48.540;9.268;2023-04-03T08:55:48;4.03;;;3.63;;
2320;SDS011;15376;48.540;9.268;2023-04-03T08:58:20;4.23;;;3.60;;
2320;SDS011;15376;48.540;9.268;2023-04-03T09:00:49;3.83;;;3.53;;
2320;SDS011;15376;48.540;9.268;2023-04-03T09:03:16;4.67;;;3.40;;
2320;SDS011;15376;48.540;9.268;2023-04-03T09:16:57;4.30;;;4.00;;
2320;SDS011;15376;48.540;9.268;2023-04-03T09:22:01;4.90;;;3.20;;
2320;SDS011;15376;48.540;9.268;2023-04-03T09:24:27;6.33;;;4.03;;
2320;SDS011;15376;48.540;9.268;2023-04-03T09:27:08;3.67;;;3.27;;
2320;SDS011;15376;48.540;9.268;2023-04-03T09:29:37;4.07;;;2.90;;
2320;SDS011;15376;48.540;9.268;2023-04-03T09:32:19;3.47;;;3.17;;
2320;SDS011;15376;48.540;9.268;2023-04-03T09:34:50;4.00;;;3.30;;
2320;SDS011;15376;48.540;9.268;2023-04-03T09:38:01;4.30;;;4.00;;
2320;SDS011;15376;48.540;9.268;2023-04-03T09:42:57;3.13;;;2.93;;
2320;SDS011;15376;48.540;9.268;2023-04-03T09:45:30;4.00;;;3.60;;
2320;SDS011;15376;48.540;9.268;2023-04-03T09:50:59;7.97;;;4.10;;
2320;SDS011;15376;48.540;9.268;2023-04-03T09:55:58;4.33;;;3.87;;
2320;SDS011;15376;48.540;9.268;2023-04-03T09:58:31;3.60;;;3.30;;
2320;SDS011;15376;48.540;9.268;2023-04-03T10:01:02;4.30;;;3.90;;
2320;SDS011;15376;48.540;9.268;2023-04-03T10:03:34;8.53;;;3.90;;
2320;SDS011;15376;48.540;9.268;2023-04-03T10:06:02;5.13;;;4.37;;
2320;SDS011;15376;48.540;9.268;2023-04-03T10:08:29;5.70;;;4.23;;
2320;SDS011;15376;48.540;9.268;2023-04-03T10:16:21;4.53;;;3.60;;
2320;SDS011;15376;48.540;9.268;2023-04-03T10:18:57;3.33;;;3.10;;
2320;SDS011;15376;48.540;9.268;2023-04-03T10:21:38;4.50;;;4.17;;
2320;SDS011;15376;48.540;9.268;2023-04-03T10:24:20;4.80;;;3.90;;
2320;SDS011;15376;48.540;9.268;2023-04-03T10:26:56;3.80;;;3.30;;
2320;SDS011;15376;48.540;9.268;2023-04-03T10:34:43;4.90;;;3.60;;
2320;SDS011;15376;48.540;9.268;2023-04-03T10:39:54;3.70;;;3.40;;
2320;SDS011;15376;48.540;9.268;2023-04-03T10:50:47;3.23;;;3.00;;
2320;SDS011;15376;48.540;9.268;2023-04-03T10:53:20;3.37;;;3.17;;
2320;SDS011;15376;48.540;9.268;2023-04-03T10:58:50;4.17;;;3.20;;
2320;SDS011;15376;48.540;9.268;2023-04-03T11:01:24;3.57;;;3.27;;
2320;SDS011;15376;48.540;9.268;2023-04-03T11:03:57;4.70;;;3.03;;
2320;SDS011;15376;48.540;9.268;2023-04-03T11:06:24;6.53;;;3.40;;
2320;SDS011;15376;48.540;9.268;2023-04-03T11:11:25;3.27;;;2.97;;
2320;SDS011;15376;48.540;9.268;2023-04-03T11:14:02;2.80;;;2.60;;
2320;SDS011;15376;48.540;9.268;2023-04-03T11:16:36;4.30;;;3.90;;
2320;SDS011;15376;48.540;9.268;2023-04-03T11:22:03;4.70;;;2.77;;
2320;SDS011;15376;48.540;9.268;2023-04-03T11:24:34;2.40;;;2.20;;
2320;SDS011;15376;48.540;9.268;2023-04-03T11:27:03;4.77;;;3.40;;
2320;SDS011;15376;48.540;9.268;2023-04-03T11:29:31;5.50;;;3.57;;
2320;SDS011;15376;48.540;9.268;2023-04-03T11:34:52;3.10;;;2.90;;
2320;SDS011;15376;48.540;9.268;2023-04-03T11:37:32;3.20;;;2.87;;
2320;SDS011;15376;48.540;9.268;2023-04-03T11:40:03;5.20;;;3.10;;
2320;SDS011;15376;48.540;9.268;2023-04-03T11:47:58;4.53;;;2.90;;
2320;SDS011;15376;48.540;9.268;2023-04-03T11:50:39;3.20;;;2.93;;
2320;SDS011;15376;48.540;9.268;2023-04-03T12:13:41;3.00;;;2.60;;
2320;SDS011;15376;48.540;9.268;2023-04-03T12:16:25;4.17;;;2.93;;
2320;SDS011;15376;48.540;9.268;2023-04-03T12:21:19;3.83;;;3.40;;
2320;SDS011;15376;48.540;9.268;2023-04-03T12:26:46;4.17;;;2.50;;
2320;SDS011;15376;48.540;9.268;2023-04-03T12:29:26;3.87;;;2.83;;
2320;SDS011;15376;48.540;9.268;2023-04-03T12:40:37;2.67;;;2.47;;
2320;SDS011;15376;48.540;9.268;2023-04-03T12:46:21;1.83;;;1.73;;
2320;SDS011;15376;48.540;9.268;2023-04-03T12:48:52;3.43;;;3.10;;
2320;SDS011;15376;48.540;9.268;2023-04-03T12:54:25;2.70;;;2.50;;
2320;SDS011;15376;48.540;9.268;2023-04-03T12:57:12;4.47;;;2.77;;
2320;SDS011;15376;48.540;9.268;2023-04-03T12:59:46;3.33;;;3.03;;
2320;SDS011;15376;48.540;9.268;2023-04-03T13:02:25;4.40;;;3.70;;
2320;SDS011;15376;48.540;9.268;2023-04-03T13:04:53;4.07;;;3.07;;
2320;SDS011;15376;48.540;9.268;2023-04-03T13:07:23;4.70;;;3.13;;
2320;SDS011;15376;48.540;9.268;2023-04-03T13:10:13;2.90;;;2.60;;
2320;SDS011;15376;48.540;9.268;2023-04-03T13:12:51;4.87;;;2.60;;
2320;SDS011;15376;48.540;9.268;2023-04-03T13:15:29;1.93;;;1.83;;
2320;SDS011;15376;48.540;9.268;2023-04-03T13:18:04;3.50;;;3.10;;
2320;SDS011;15376;48.540;9.268;2023-04-03T13:20:31;2.23;;;2.10;;
2320;SDS011;15376;48.540;9.268;2023-04-03T13:25:31;3.23;;;2.90;;
2320;SDS011;15376;48.540;9.268;2023-04-03T13:27:59;2.53;;;2.33;;
2320;SDS011;15376;48.540;9.268;2023-04-03T13:30:35;3.77;;;2.70;;
2320;SDS011;15376;48.540;9.268;2023-04-03T13:33:03;4.80;;;2.80;;
2320;SDS011;15376;48.540;9.268;2023-04-03T13:35:33;3.73;;;2.90;;
2320;SDS011;15376;48.540;9.268;2023-04-03T13:38:06;4.33;;;2.97;;
2320;SDS011;15376;48.540;9.268;2023-04-03T13:40:53;3.10;;;2.80;;
2320;SDS011;15376;48.540;9.268;2023-04-03T13:43:22;5.40;;;3.60;;
2320;SDS011;15376;48.540;9.268;2023-04-03T13:48:39;4.80;;;3.80;;
2320;SDS011;15376;48.540;9.268;2023-04-03T13:54:15;3.20;;;3.00;;
2320;SDS011;15376;48.540;9.268;2023-04-03T13:56:42;4.07;;;3.67;;
2320;SDS011;15376;48.540;9.268;2023-04-03T14:07:01;5.20;;;3.00;;
2320;SDS011;15376;48.540;9.268;2023-04-03T14:09:27;4.57;;;3.37;;
2320;SDS011;15376;48.540;9.268;2023-04-03T14:11:54;5.60;;;2.90;;
2320;SDS011;15376;48.540;9.268;2023-04-03T14:14:26;3.30;;;2.90;;
2320;SDS011;15376;48.540;9.268;2023-04-03T14:16:56;3.07;;;2.87;;
2320;SDS011;15376;48.540;9.268;2023-04-03T14:19:31;3.37;;;2.50;;
2320;SDS011;15376;48.540;9.268;2023-04-03T14:22:06;3.80;;;3.50;;
2320;SDS011;15376;48.540;9.268;2023-04-03T14:24:51;4.00;;;2.87;;
2320;SDS011;15376;48.540;9.268;2023-04-03T14:27:27;3.17;;;2.90;;
2320;SDS011;15376;48.540;9.268;2023-04-03T14:29:55;3.10;;;2.90;;
2320;SDS011;15376;48.540;9.268;2023-04-03T14:32:23;3.70;;;3.40;;
2320;SDS011;15376;48.540;9.268;2023-04-03T14:34:49;3.80;;;3.10;;
2320;SDS011;15376;48.540;9.268;2023-04-03T14:37:17;3.67;;;3.33;;
2320;SDS011;15376;48.540;9.268;2023-04-03T14:39:45;5.87;;;3.60;;
2320;SDS011;15376;48.540;9.268;2023-04-03T14:42:12;4.70;;;3.27;;
2320;SDS011;15376;48.540;9.268;2023-04-03T14:44:52;3.50;;;3.30;;
2320;SDS011;15376;48.540;9.268;2023-04-03T14:47:22;3.30;;;3.00;;
2320;SDS011;15376;48.540;9.268;2023-04-03T14:49:50;3.50;;;3.20;;
2320;SDS011;15376;48.540;9.268;2023-04-03T14:52:18;4.03;;;2.80;;
2320;SDS011;15376;48.540;9.268;2023-04-03T14:54:46;2.73;;;2.53;;
2320;SDS011;15376;48.540;9.268;2023-04-03T14:57:13;3.33;;;3.00;;
2320;SDS011;15376;48.540;9.268;2023-04-03T14:59:40;4.57;;;3.30;;
2320;SDS011;15376;48.540;9.268;2023-04-03T15:05:00;3.13;;;2.80;;
2320;SDS011;15376;48.540;9.268;2023-04-03T15:07:29;2.87;;;2.63;;
2320;SDS011;15376;48.540;9.268;2023-04-03T15:09:58;7.23;;;3.90;;
2320;SDS011;15376;48.540;9.268;2023-04-03T15:12:26;3.20;;;2.90;;
2320;SDS011;15376;48.540;9.268;2023-04-03T15:14:52;3.23;;;2.73;;
2320;SDS011;15376;48.540;9.268;2023-04-03T15:17:20;2.93;;;2.73;;
2320;SDS011;15376;48.540;9.268;2023-04-03T15:19:47;3.97;;;3.67;;
2320;SDS011;15376;48.540;9.268;2023-04-03T15:22:13;4.23;;;3.83;;
2320;SDS011;15376;48.540;9.268;2023-04-03T15:24:41;4.23;;;3.37;;
2320;SDS011;15376;48.540;9.268;2023-04-03T15:27:07;4.47;;;3.00;;
2320;SDS011;15376;48.540;9.268;2023-04-03T15:29:32;3.20;;;2.90;;
2320;SDS011;15376;48.540;9.268;2023-04-03T15:31:58;4.33;;;3.10;;
2320;SDS011;15376;48.540;9.268;2023-04-03T15:34:23;4.30;;;3.87;;
2320;SDS011;15376;48.540;9.268;2023-04-03T15:36:49;4.63;;;3.30;;
2320;SDS011;15376;48.540;9.268;2023-04-03T15:39:17;3.47;;;3.17;;
2320;SDS011;15376;48.540;9.268;2023-04-03T15:41:42;4.27;;;3.87;;
2320;SDS011;15376;48.540;9.268;2023-04-03T15:44:08;4.43;;;3.83;;
2320;SDS011;15376;48.540;9.268;2023-04-03T15:46:33;2.90;;;2.70;;
2320;SDS011;15376;48.540;9.268;2023-04-03T15:48:59;3.83;;;3.43;;
2320;SDS011;15376;48.540;9.268;2023-04-03T15:51:25;2.93;;;2.70;;
2320;SDS011;15376;48.540;9.268;2023-04-03T15:53:51;3.57;;;3.27;;
2320;SDS011;15376;48.540;9.268;2023-04-03T15:56:16;3.20;;;2.90;;
2320;SDS011;15376;48.540;9.268;2023-04-03T15:58:41;3.27;;;3.00;;
2320;SDS011;15376;48.540;9.268;2023-04-03T16:01:08;3.93;;;3.07;;
2320;SDS011;15376;48.540;9.268;2023-04-03T16:03:35;3.43;;;3.00;;
2320;SDS011;15376;48.540;9.268;2023-04-03T16:06:03;2.83;;;2.63;;
2320;SDS011;15376;48.540;9.268;2023-04-03T16:08:29;3.23;;;3.00;;
2320;SDS011;15376;48.540;9.268;2023-04-03T16:10:55;3.17;;;2.70;;
2320;SDS011;15376;48.540;9.268;2023-04-03T16:13:20;2.80;;;2.60;;
2320;SDS011;15376;48.540;9.268;2023-04-03T16:15:45;2.80;;;2.60;;
2320;SDS011;15376;48.540;9.268;2023-04-03T16:18:11;4.10;;;2.70;;
2320;SDS011;15376;48.540;9.268;2023-04-03T16:20:38;3.00;;;2.70;;
2320;SDS011;15376;48.540;9.268;2023-04-03T16:23:04;3.30;;;3.00;;
2320;SDS011;15376;48.540;9.268;2023-04-03T16:25:29;2.87;;;2.60;;
2320;SDS011;15376;48.540;9.268;2023-04-03T16:27:55;3.90;;;2.57;;
2320;SDS011;15376;48.540;9.268;2023-04-03T16:30:21;3.80;;;3.10;;
2320;SDS011;15376;48.540;9.268;2023-04-03T16:32:47;4.50;;;3.93;;
2320;SDS011;15376;48.540;9.268;2023-04-03T16:35:12;4.30;;;3.90;;
2320;SDS011;15376;48.540;9.268;2023-04-03T16:37:38;3.40;;;3.10;;
2320;SDS011;15376;48.540;9.268;2023-04-03T16:40:04;4.63;;;4.27;;
2320;SDS011;15376;48.540;9.268;2023-04-03T16:42:31;2.77;;;2.57;;
2320;SDS011;15376;48.540;9.268;2023-04-03T16:44:57;4.73;;;3.10;;
2320;SDS011;15376;48.540;9.268;2023-04-03T16:47:23;4.77;;;2.80;;
2320;SDS011;15376;48.540;9.268;2023-04-03T16:49:49;2.43;;;2.23;;
2320;SDS011;15376;48.540;9.268;2023-04-03T16:52:14;2.80;;;2.60;;
2320;SDS011;15376;48.540;9.268;2023-04-03T16:54:40;4.53;;;3.17;;
2320;SDS011;15376;48.540;9.268;2023-04-03T16:57:05;3.07;;;2.83;;
2320;SDS011;15376;48.540;9.268;2023-04-03T16:59:30;6.00;;;2.67;;
2320;SDS011;15376;48.540;9.268;2023-04-03T17:01:56;3.27;;;2.83;;
2320;SDS011;15376;48.540;9.268;2023-04-03T17:04:21;3.53;;;2.80;;
2320;SDS011;15376;48.540;9.268;2023-04-03T17:06:46;5.47;;;3.00;;
2320;SDS011;15376;48.540;9.268;2023-04-03T17:09:12;2.60;;;2.40;;
2320;SDS011;15376;48.540;9.268;2023-04-03T17:11:40;3.70;;;2.93;;
2320;SDS011;15376;48.540;9.268;2023-04-03T17:14:06;2.97;;;2.73;;
2320;SDS011;15376;48.540;9.268;2023-04-03T17:16:32;3.77;;;2.50;;
2320;SDS011;15376;48.540;9.268;2023-04-03T17:19:00;5.93;;;3.40;;
2320;SDS011;15376;48.540;9.268;2023-04-03T17:21:25;3.43;;;2.60;;
2320;SDS011;15376;48.540;9.268;2023-04-03T17:23:55;2.90;;;2.70;;
2320;SDS011;15376;48.540;9.268;2023-04-03T17:26:23;2.97;;;2.77;;
2320;SDS011;15376;48.540;9.268;2023-04-03T17:28:50;3.23;;;2.93;;
2320;SDS011;15376;48.540;9.268;2023-04-03T17:31:16;2.53;;;2.33;;
2320;SDS011;15376;48.540;9.268;2023-04-03T17:33:42;2.80;;;2.57;;
2320;SDS011;15376;48.540;9.268;2023-04-03T17:36:07;2.77;;;2.57;;
2320;SDS011;15376;48.540;9.268;2023-04-03T17:38:33;3.93;;;3.00;;
2320;SDS011;15376;48.540;9.268;2023-04-03T17:41:03;3.93;;;3.47;;
2320;SDS011;15376;48.540;9.268;2023-04-03T17:43:31;2.77;;;2.57;;
2320;SDS011;15376;48.540;9.268;2023-04-03T17:46:06;3.40;;;3.03;;
2320;SDS011;15376;48.540;9.268;2023-04-03T17:48:34;2.70;;;2.50;;
2320;SDS011;15376;48.540;9.268;2023-04-03T17:51:08;4.17;;;2.80;;
2320;SDS011;15376;48.540;9.268;2023-04-03T17:53:35;5.20;;;3.47;;
2320;SDS011;15376;48.540;9.268;2023-04-03T17:56:08;3.83;;;3.30;;